logo
Search for airport 
image banner adimage banner adimage banner ad
image banner ad

SGARRA - Arrayan

Located in Luque, Paraguay

ICAO - , IATA -

Data provided by Airmate  

General information

Coordinates: S25°15'41" W57°24'15"
Elevation is 242 feet MSL.
Magnetic variation is -15° East
View others Airports in Central Department

Operational data

Special qualification required
Current time UTC:
Current local time:
METAR: SGAS 140200Z 17003KT CAVOK 26/25 Q1010
TAF: TAF SGAS 132300Z 1400/1500 VRB05KT 9000 BKN027 TX29/1418Z TN20/1409Z TEMPO 1401/1405 8000 -RA BKN020 PROB30 1410/1414 6000 TSRA OVC010 FEW040CB BECMG 1420/1423 15008KT 9999 BKN020
View NOTAMs / SUP AIP / TFR affecting this airport [VIEW]
Communications frequencies: [VIEW]

Runways:

RWY identifierQFULength (ft)Width (ft)SurfaceLDA (ft)
0538°295652DIRT
23218°295652DIRT

Airport contact information

Address: Luque Paraguay

Satellite view of SGARRA